createdAt,value
2023-03-20T00:00:04.101Z,66.77
2023-03-20T00:02:31.635Z,71.10
2023-03-20T00:04:58.837Z,73.50
2023-03-20T00:07:26.437Z,61.00
2023-03-20T00:09:54.887Z,67.43
2023-03-20T00:12:24.746Z,64.37
2023-03-20T00:14:52.181Z,65.20
2023-03-20T00:17:20.508Z,61.50
2023-03-20T00:19:47.781Z,56.67
2023-03-20T00:22:14.892Z,56.40
2023-03-20T00:24:42.013Z,56.17
2023-03-20T00:27:10.911Z,62.37
2023-03-20T00:29:38.098Z,58.20
2023-03-20T00:32:06.563Z,62.30
2023-03-20T00:34:33.706Z,79.53
2023-03-20T00:37:00.822Z,74.90
2023-03-20T00:39:27.938Z,83.43
2023-03-20T00:41:58.520Z,89.93
2023-03-20T00:44:27.145Z,82.50
2023-03-20T00:46:55.089Z,86.73
2023-03-20T00:49:29.222Z,80.90
2023-03-20T00:51:56.526Z,131.50
2023-03-20T00:54:23.707Z,189.63
2023-03-20T00:56:58.532Z,117.47
2023-03-20T00:59:26.719Z,105.27
2023-03-20T01:01:53.960Z,119.67
2023-03-20T01:04:21.260Z,110.67
2023-03-20T01:06:48.384Z,101.80
2023-03-20T01:09:15.504Z,100.60
2023-03-20T01:11:42.652Z,103.87
2023-03-20T01:14:13.402Z,91.20
2023-03-20T01:16:40.808Z,89.40
2023-03-20T01:19:08.055Z,82.47
2023-03-20T01:21:35.294Z,97.30
2023-03-20T01:24:02.395Z,82.30
2023-03-20T01:26:36.845Z,84.67
2023-03-20T01:29:04.569Z,92.93
2023-03-20T01:31:31.748Z,85.87
2023-03-20T01:33:58.914Z,109.37
2023-03-20T01:36:26.193Z,105.10
2023-03-20T01:38:57.378Z,98.37
2023-03-20T01:41:25.240Z,82.03
2023-03-20T01:43:52.373Z,87.30
2023-03-20T01:46:29.932Z,95.60
2023-03-20T01:48:58.419Z,86.50
2023-03-20T01:51:29.527Z,88.43
2023-03-20T01:54:00.615Z,88.33
2023-03-20T01:56:27.712Z,83.57
2023-03-20T01:59:02.354Z,71.00
2023-03-20T02:01:29.525Z,60.67
2023-03-20T02:03:57.393Z,63.73
2023-03-20T02:06:25.378Z,62.90
2023-03-20T02:08:54.324Z,54.00
2023-03-20T02:11:25.369Z,54.00
2023-03-20T02:13:52.700Z,61.13
2023-03-20T02:16:20.416Z,68.07
2023-03-20T02:18:48.934Z,69.83
2023-03-20T02:21:25.990Z,61.23
2023-03-20T02:23:55.990Z,56.33
2023-03-20T02:26:42.564Z,46.07
2023-03-20T02:29:16.873Z,52.00
2023-03-20T02:32:13.837Z,43.60
2023-03-20T02:34:44.068Z,39.83
2023-03-20T02:37:25.363Z,42.57
2023-03-20T02:40:11.354Z,48.13
2023-03-20T02:42:46.058Z,47.07
2023-03-20T02:45:26.173Z,40.40
2023-03-20T02:47:57.422Z,35.63
2023-03-20T02:50:24.571Z,39.20
2023-03-20T02:52:57.848Z,35.93
2023-03-20T02:55:32.856Z,38.87
2023-03-20T02:58:02.611Z,35.10
2023-03-20T03:00:37.226Z,36.20
2023-03-20T03:03:18.911Z,43.20
2023-03-20T03:05:49.045Z,56.20
2023-03-20T03:08:16.654Z,71.73
2023-03-20T03:10:54.480Z,71.77
2023-03-20T03:13:22.376Z,81.53
2023-03-20T03:15:50.363Z,81.80
2023-03-20T03:18:19.529Z,88.03
2023-03-20T03:20:46.680Z,83.43
2023-03-20T03:23:24.126Z,82.03
2023-03-20T03:25:51.791Z,76.53
2023-03-20T03:28:38.983Z,76.37
2023-03-20T03:31:07.162Z,68.93
2023-03-20T03:33:35.964Z,66.63
2023-03-20T03:36:22.387Z,73.03
2023-03-20T03:38:53.074Z,78.20
2023-03-20T03:41:23.334Z,70.40
2023-03-20T03:43:53.065Z,73.93
2023-03-20T03:46:21.632Z,64.73
2023-03-20T03:48:50.080Z,71.77
2023-03-20T03:51:17.644Z,89.43
2023-03-20T03:53:53.312Z,84.60
2023-03-20T03:56:21.314Z,87.90
2023-03-20T03:58:53.075Z,123.67
2023-03-20T04:01:20.263Z,122.87
2023-03-20T04:03:49.816Z,147.83
2023-03-20T04:06:16.897Z,135.27
2023-03-20T04:08:44.103Z,105.10
2023-03-20T04:11:17.710Z,82.13
2023-03-20T04:13:45.951Z,75.80
2023-03-20T04:16:14.268Z,68.33
2023-03-20T04:18:41.773Z,68.27
2023-03-20T04:21:09.139Z,64.50
2023-03-20T04:23:36.529Z,69.97
2023-03-20T04:26:03.709Z,62.57
2023-03-20T04:28:30.868Z,66.17
2023-03-20T04:30:58.729Z,63.63
2023-03-20T04:33:26.368Z,66.47
2023-03-20T04:35:53.587Z,67.90
2023-03-20T04:38:20.900Z,71.13
2023-03-20T04:40:48.113Z,63.73
2023-03-20T04:43:15.605Z,64.23
2023-03-20T04:45:42.785Z,63.40
2023-03-20T04:48:10.267Z,61.43
2023-03-20T04:50:37.500Z,72.67
2023-03-20T04:53:04.641Z,76.53
2023-03-20T04:55:31.752Z,68.93
2023-03-20T04:57:58.918Z,70.77
2023-03-20T05:00:26.246Z,73.67
2023-03-20T05:02:53.392Z,70.77
2023-03-20T05:05:20.791Z,71.03
2023-03-20T05:07:48.265Z,71.07
2023-03-20T05:10:15.500Z,75.97
2023-03-20T05:12:42.709Z,68.33
2023-03-20T05:15:10.318Z,73.10
2023-03-20T05:17:37.471Z,61.40
2023-03-20T05:20:05.236Z,57.90
2023-03-20T05:22:32.368Z,66.37
2023-03-20T05:25:00.993Z,66.87
2023-03-20T05:27:28.131Z,82.70
2023-03-20T05:29:55.463Z,77.50
2023-03-20T05:32:22.576Z,73.67
2023-03-20T05:34:49.723Z,80.03
2023-03-20T05:37:16.828Z,80.43
2023-03-20T05:39:43.954Z,75.03
2023-03-20T05:42:11.098Z,64.73
2023-03-20T05:44:38.207Z,65.10
2023-03-20T05:47:05.398Z,67.33
2023-03-20T05:49:32.532Z,75.57
2023-03-20T05:51:59.657Z,71.53
2023-03-20T05:54:26.833Z,62.53
2023-03-20T05:56:54.019Z,58.83
2023-03-20T05:59:21.615Z,71.00
2023-03-20T06:01:48.737Z,63.60
2023-03-20T06:04:16.004Z,72.10
2023-03-20T06:06:43.178Z,74.83
2023-03-20T06:09:10.516Z,78.07
2023-03-20T06:11:37.863Z,81.23
2023-03-20T06:14:05.000Z,91.83
2023-03-20T06:16:32.107Z,104.87
2023-03-20T06:18:59.508Z,99.83
2023-03-20T06:21:26.640Z,101.57
2023-03-20T06:23:54.756Z,114.17
2023-03-20T06:26:22.145Z,113.83
2023-03-20T06:28:49.269Z,128.40
2023-03-20T06:31:16.972Z,131.73
2023-03-20T06:33:45.247Z,137.73
2023-03-20T06:36:12.732Z,127.33
2023-03-20T06:38:39.898Z,164.47
2023-03-20T06:41:07.206Z,95.50
2023-03-20T06:43:34.561Z,74.23
2023-03-20T06:46:01.705Z,50.37
2023-03-20T06:48:28.887Z,52.27
2023-03-20T06:50:56.195Z,45.43
2023-03-20T06:53:23.400Z,41.37
2023-03-20T06:55:52.500Z,42.30
2023-03-20T06:58:19.627Z,49.37
2023-03-20T07:00:46.750Z,42.07
2023-03-20T07:03:13.924Z,37.13
2023-03-20T07:05:41.164Z,32.17
2023-03-20T07:08:08.330Z,34.63
2023-03-20T07:10:35.712Z,32.67
2023-03-20T07:13:02.825Z,46.23
2023-03-20T07:15:30.171Z,42.17
2023-03-20T07:17:57.407Z,41.83
2023-03-20T07:20:24.526Z,39.73
2023-03-20T07:22:51.708Z,37.67
2023-03-20T07:25:24.001Z,31.40
2023-03-20T07:27:59.264Z,29.08
2023-03-20T07:30:26.437Z,32.17
2023-03-20T07:32:53.670Z,39.28
2023-03-20T07:35:21.071Z,55.08
2023-03-20T07:37:48.240Z,49.45
2023-03-20T07:40:15.507Z,42.43
2023-03-20T07:42:42.610Z,38.83
2023-03-20T07:45:10.123Z,36.55
2023-03-20T07:47:37.346Z,34.45
2023-03-20T07:50:06.996Z,34.45
2023-03-20T07:52:35.272Z,39.33
2023-03-20T07:55:02.385Z,40.92
2023-03-20T07:57:29.510Z,41.08
2023-03-20T07:59:56.808Z,33.67
2023-03-20T08:02:23.920Z,32.22
2023-03-20T08:04:51.024Z,39.28
2023-03-20T08:07:18.275Z,30.05
2023-03-20T08:09:45.637Z,20.60
2023-03-20T08:12:12.751Z,29.27
2023-03-20T08:14:39.968Z,28.88
2023-03-20T08:17:14.752Z,17.45
2023-03-20T08:19:43.222Z,18.15
2023-03-20T08:22:10.351Z,18.25
2023-03-20T08:24:37.510Z,29.80
2023-03-20T08:27:04.708Z,25.20
2023-03-20T08:29:31.805Z,19.95
2023-03-20T08:31:58.913Z,17.90
2023-03-20T08:34:26.458Z,11.27
2023-03-20T08:36:53.704Z,13.35
2023-03-20T08:39:21.821Z,11.02
2023-03-20T08:41:48.965Z,9.70
2023-03-20T08:44:16.445Z,9.30
2023-03-20T08:46:44.820Z,9.52
2023-03-20T08:49:11.979Z,10.52
2023-03-20T08:51:39.101Z,12.52
2023-03-20T08:54:06.502Z,9.73
2023-03-20T08:56:33.695Z,10.52
2023-03-20T08:59:00.814Z,12.73
2023-03-20T09:01:38.506Z,10.68
2023-03-20T09:04:15.289Z,9.48
2023-03-20T09:06:42.432Z,10.80
2023-03-20T09:09:09.551Z,9.27
2023-03-20T09:11:37.088Z,9.32
2023-03-20T09:14:04.240Z,13.70
2023-03-20T09:16:31.568Z,11.20
2023-03-20T09:18:58.798Z,10.07
2023-03-20T09:21:26.134Z,9.60
2023-03-20T09:23:53.266Z,10.13
2023-03-20T09:26:20.528Z,11.13
2023-03-20T09:28:48.231Z,9.88
2023-03-20T09:31:18.223Z,9.90
2023-03-20T09:33:45.591Z,11.23
2023-03-20T09:36:13.139Z,9.73
2023-03-20T09:38:42.023Z,10.55
2023-03-20T09:41:13.512Z,9.63
2023-03-20T09:43:49.866Z,9.75
2023-03-20T09:46:19.870Z,10.38
2023-03-20T09:48:53.907Z,11.23
2023-03-20T09:51:27.614Z,9.15
2023-03-20T09:54:01.255Z,10.88
2023-03-20T09:56:28.754Z,9.88
2023-03-20T09:58:56.571Z,10.90
2023-03-20T10:01:25.181Z,13.15
2023-03-20T10:03:58.983Z,12.27
2023-03-20T10:06:26.297Z,15.23
2023-03-20T10:08:55.116Z,11.90
2023-03-20T10:11:34.340Z,18.58
2023-03-20T10:14:04.264Z,13.60
2023-03-20T10:16:31.407Z,13.68
2023-03-20T10:19:03.099Z,10.73
2023-03-20T10:21:50.484Z,11.10
2023-03-20T10:24:19.737Z,9.32
2023-03-20T10:26:47.875Z,8.85
2023-03-20T10:29:35.480Z,10.88
2023-03-20T10:32:04.641Z,9.20
2023-03-20T10:34:45.012Z,10.80
2023-03-20T10:37:21.726Z,12.98
2023-03-20T10:40:07.382Z,10.30
2023-03-20T10:42:35.639Z,10.00
2023-03-20T10:45:03.330Z,7.85
2023-03-20T10:47:31.552Z,9.25
2023-03-20T10:50:02.445Z,10.23
2023-03-20T10:52:30.876Z,14.07
2023-03-20T10:55:01.770Z,19.00
2023-03-20T10:57:31.993Z,9.07
2023-03-20T10:59:59.223Z,10.45
2023-03-20T11:02:28.398Z,10.60
2023-03-20T11:04:55.588Z,8.00
2023-03-20T11:07:22.692Z,8.35
2023-03-20T11:10:05.161Z,10.55
2023-03-20T11:12:35.939Z,8.32
2023-03-20T11:15:15.374Z,6.22
2023-03-20T11:17:42.603Z,8.10
2023-03-20T11:20:11.826Z,7.65
2023-03-20T11:22:39.006Z,8.68
2023-03-20T11:25:06.249Z,6.72
2023-03-20T11:27:33.923Z,8.77
2023-03-20T11:30:01.495Z,6.00
2023-03-20T11:32:35.811Z,9.10
2023-03-20T11:35:11.979Z,5.95
2023-03-20T11:37:44.032Z,7.28
2023-03-20T11:40:11.118Z,7.57
2023-03-20T11:42:38.237Z,11.40
2023-03-20T11:45:07.966Z,7.38
2023-03-20T11:47:35.729Z,5.80
2023-03-20T11:50:04.025Z,6.63
2023-03-20T11:52:34.800Z,6.38
2023-03-20T11:55:03.297Z,8.65
2023-03-20T11:57:30.698Z,6.30
2023-03-20T11:59:57.809Z,7.00
2023-03-20T12:02:25.008Z,6.78
2023-03-20T12:04:52.196Z,7.57
2023-03-20T12:07:19.310Z,8.40
2023-03-20T12:09:46.419Z,7.10
2023-03-20T12:12:19.689Z,12.75
2023-03-20T12:14:55.978Z,12.52
2023-03-20T12:17:26.524Z,7.57
2023-03-20T12:19:53.943Z,12.32
2023-03-20T12:22:25.133Z,11.82
2023-03-20T12:25:12.540Z,12.05
2023-03-20T12:27:47.210Z,11.13
2023-03-20T12:30:15.020Z,9.85
2023-03-20T12:32:47.417Z,10.77
2023-03-20T12:35:27.600Z,8.93
2023-03-20T12:37:54.720Z,9.90
2023-03-20T12:40:27.791Z,9.80
2023-03-20T12:43:01.663Z,10.45
2023-03-20T12:45:39.803Z,12.65
2023-03-20T12:48:13.084Z,19.58
2023-03-20T12:50:40.577Z,24.90
2023-03-20T12:53:07.739Z,16.83
2023-03-20T12:55:53.557Z,10.38
2023-03-20T12:58:39.490Z,14.70
2023-03-20T13:01:12.749Z,10.10
2023-03-20T13:03:45.852Z,9.55
2023-03-20T13:06:26.457Z,12.00
2023-03-20T13:09:12.347Z,13.32
2023-03-20T13:11:58.273Z,12.25
2023-03-20T13:14:32.349Z,10.18
2023-03-20T13:17:02.683Z,10.32
2023-03-20T13:19:45.111Z,17.60
2023-03-20T13:22:24.318Z,14.77
2023-03-20T13:24:51.910Z,26.17
2023-03-20T13:27:22.115Z,13.57
2023-03-20T13:30:12.355Z,18.50
2023-03-20T13:32:39.637Z,12.98
2023-03-20T13:35:15.752Z,12.98
2023-03-20T13:37:44.414Z,49.22
2023-03-20T13:40:11.559Z,30.20
2023-03-20T13:42:40.542Z,13.10
2023-03-20T13:45:09.245Z,15.60
2023-03-20T13:47:36.400Z,12.50
2023-03-20T13:50:25.174Z,15.27
2023-03-20T13:53:18.636Z,19.50
2023-03-20T13:55:49.250Z,13.40
2023-03-20T13:58:20.596Z,15.02
2023-03-20T14:00:52.783Z,15.23
2023-03-20T14:03:20.024Z,12.93
2023-03-20T14:05:47.522Z,17.00
2023-03-20T14:08:33.415Z,18.55
2023-03-20T14:11:07.896Z,14.23
2023-03-20T14:13:35.275Z,12.57
2023-03-20T14:16:04.224Z,12.90
2023-03-20T14:18:31.483Z,13.57
2023-03-20T14:21:00.716Z,11.90
2023-03-20T14:23:37.547Z,23.60
2023-03-20T14:26:16.914Z,28.95
2023-03-20T14:28:44.778Z,14.13
2023-03-20T14:31:12.952Z,14.80
2023-03-20T14:33:43.735Z,14.40
2023-03-20T14:36:11.915Z,16.02
2023-03-20T14:38:42.076Z,12.05
2023-03-20T14:41:21.197Z,19.98
2023-03-20T14:43:52.243Z,14.85
2023-03-20T14:46:22.156Z,15.48
2023-03-20T14:48:50.566Z,16.23
2023-03-20T14:51:20.891Z,16.45
2023-03-20T14:54:11.079Z,12.65
2023-03-20T14:56:38.227Z,13.02
2023-03-20T14:59:05.769Z,13.07
2023-03-20T15:01:39.019Z,14.52
2023-03-20T15:04:10.199Z,16.42
2023-03-20T15:06:43.461Z,15.50
2023-03-20T15:09:10.936Z,14.23
2023-03-20T15:11:38.089Z,16.70
2023-03-20T15:14:06.826Z,24.35
2023-03-20T15:16:34.570Z,21.85
2023-03-20T15:19:01.858Z,23.67
2023-03-20T15:21:38.850Z,23.40
2023-03-20T15:24:06.119Z,25.88
2023-03-20T15:26:33.830Z,23.35
2023-03-20T15:29:04.964Z,25.25
2023-03-20T15:31:33.024Z,33.97
2023-03-20T15:34:00.664Z,55.00
2023-03-20T15:36:28.879Z,47.10
2023-03-20T15:39:02.629Z,34.92
2023-03-20T15:41:30.566Z,36.65
2023-03-20T15:44:23.798Z,36.35
2023-03-20T15:47:00.055Z,30.58
2023-03-20T15:49:27.614Z,27.75
2023-03-20T15:51:55.336Z,32.95
2023-03-20T15:54:22.598Z,18.83
2023-03-20T15:56:51.542Z,19.08
2023-03-20T15:59:20.317Z,30.88
2023-03-20T16:01:47.671Z,37.05
2023-03-20T16:04:15.595Z,30.90
2023-03-20T16:06:46.542Z,25.20
2023-03-20T16:09:14.532Z,23.00
2023-03-20T16:11:42.342Z,21.08
2023-03-20T16:14:17.048Z,18.25
2023-03-20T16:16:44.438Z,24.60
2023-03-20T16:19:12.311Z,21.08
2023-03-20T16:21:40.330Z,18.83
2023-03-20T16:24:09.063Z,21.25
2023-03-20T16:26:37.946Z,21.45
2023-03-20T16:29:05.427Z,19.92
2023-03-20T16:31:34.101Z,19.73
2023-03-20T16:34:08.591Z,15.80
2023-03-20T16:36:36.672Z,21.20
2023-03-20T16:39:04.154Z,20.27
2023-03-20T16:41:41.062Z,18.23
2023-03-20T16:44:15.223Z,17.80
2023-03-20T16:46:57.809Z,15.40
2023-03-20T16:49:34.543Z,17.95
2023-03-20T16:52:02.652Z,29.30
2023-03-20T16:54:30.985Z,19.35
2023-03-20T16:56:58.133Z,48.17
2023-03-20T16:59:25.471Z,50.58
2023-03-20T17:01:54.237Z,59.22
2023-03-20T17:04:22.384Z,81.95
2023-03-20T17:07:09.843Z,113.65
2023-03-20T17:09:36.983Z,159.10
2023-03-20T17:12:13.411Z,131.43
2023-03-20T17:14:40.751Z,116.88
2023-03-20T17:17:19.556Z,120.75
2023-03-20T17:19:47.186Z,187.32
2023-03-20T17:22:15.212Z,217.35
2023-03-20T17:24:42.421Z,192.82
2023-03-20T17:27:10.323Z,157.02
2023-03-20T17:29:37.478Z,145.80
2023-03-20T17:32:10.049Z,133.80
2023-03-20T17:34:37.667Z,132.80
2023-03-20T17:37:04.849Z,125.90
2023-03-20T17:39:32.034Z,130.63
2023-03-20T17:41:59.165Z,132.18
2023-03-20T17:44:26.391Z,116.95
2023-03-20T17:46:58.625Z,117.57
2023-03-20T17:49:27.375Z,117.32
2023-03-20T17:51:55.044Z,92.50
2023-03-20T17:54:22.251Z,94.40
2023-03-20T17:56:49.392Z,98.50
2023-03-20T17:59:16.621Z,94.57
2023-03-20T18:01:43.940Z,97.32
2023-03-20T18:04:11.140Z,92.03
2023-03-20T18:06:38.375Z,103.60
2023-03-20T18:09:05.909Z,97.38
2023-03-20T18:11:33.161Z,95.07
2023-03-20T18:14:02.032Z,83.15
2023-03-20T18:16:29.252Z,81.97
2023-03-20T18:18:57.005Z,68.75
2023-03-20T18:21:24.226Z,133.15
2023-03-20T18:23:51.411Z,126.80
2023-03-20T18:26:20.002Z,101.70
2023-03-20T18:28:47.320Z,107.38
2023-03-20T18:31:18.740Z,109.18
2023-03-20T18:33:49.364Z,118.82
2023-03-20T18:36:17.219Z,108.45
2023-03-20T18:38:44.476Z,127.18
2023-03-20T18:41:11.882Z,118.00
2023-03-20T18:43:42.724Z,124.13
2023-03-20T18:46:16.320Z,119.68
2023-03-20T18:48:43.550Z,118.47
2023-03-20T18:51:11.004Z,115.55
2023-03-20T18:53:38.328Z,154.00
2023-03-20T18:56:05.656Z,235.82
2023-03-20T18:58:32.891Z,213.57
2023-03-20T19:01:00.641Z,191.10
2023-03-20T19:03:28.773Z,148.57
2023-03-20T19:05:57.500Z,116.70
2023-03-20T19:08:24.686Z,202.75
2023-03-20T19:10:51.931Z,202.55
2023-03-20T19:13:19.789Z,215.13
2023-03-20T19:15:47.076Z,196.30
2023-03-20T19:18:18.694Z,207.48
2023-03-20T19:20:48.012Z,193.75
2023-03-20T19:23:15.995Z,174.80
2023-03-20T19:25:43.576Z,163.57
2023-03-20T19:28:34.561Z,124.97
2023-03-20T19:31:05.797Z,103.25
2023-03-20T19:33:33.377Z,270.23
2023-03-20T19:36:03.753Z,116.95
2023-03-20T19:38:31.405Z,117.53
2023-03-20T19:40:59.796Z,139.63
2023-03-20T19:43:29.012Z,183.27
2023-03-20T19:45:58.735Z,182.20
2023-03-20T19:48:50.408Z,164.70
2023-03-20T19:51:21.187Z,126.70
2023-03-20T19:53:48.516Z,114.30
2023-03-20T19:56:16.045Z,87.97
2023-03-20T19:58:43.434Z,140.68
2023-03-20T20:01:15.428Z,88.40
2023-03-20T20:03:42.914Z,91.97
2023-03-20T20:06:10.107Z,90.22
2023-03-20T20:08:48.978Z,96.13
2023-03-20T20:11:17.591Z,86.28
2023-03-20T20:14:04.834Z,95.15
2023-03-20T20:16:33.435Z,85.40
2023-03-20T20:19:00.867Z,89.68
2023-03-20T20:22:13.361Z,91.75
2023-03-20T20:24:16.572Z,105.00
2023-03-20T20:26:53.758Z,103.20
2023-03-20T20:29:24.471Z,102.85
2023-03-20T20:31:51.834Z,111.45
2023-03-20T20:39:53.940Z,314.50
2023-03-20T20:42:21.531Z,406.65
2023-03-20T20:44:48.745Z,313.52
2023-03-20T20:47:16.116Z,291.58
2023-03-20T20:49:43.514Z,273.50
2023-03-20T20:52:10.827Z,237.98
2023-03-20T20:54:41.619Z,227.00
2023-03-20T20:57:10.641Z,211.25
2023-03-20T20:59:38.543Z,210.45
2023-03-20T21:02:12.289Z,189.50
2023-03-20T21:04:40.102Z,182.55
2023-03-20T21:07:10.741Z,156.27
2023-03-20T21:09:38.659Z,144.02
2023-03-20T21:12:06.004Z,136.05
2023-03-20T21:14:33.224Z,136.48
2023-03-20T21:17:03.590Z,139.63
2023-03-20T21:19:31.181Z,150.07
2023-03-20T21:21:58.452Z,166.68
2023-03-20T21:24:32.640Z,175.55
2023-03-20T21:27:19.266Z,177.35
2023-03-20T21:29:50.300Z,187.95
2023-03-20T21:32:19.123Z,182.32
2023-03-20T21:34:46.486Z,181.63
2023-03-20T21:38:13.175Z,189.13
2023-03-20T21:40:02.310Z,190.10
2023-03-20T21:42:29.609Z,213.05
2023-03-20T21:48:27.070Z,245.73
2023-03-20T21:50:54.143Z,253.82
2023-03-20T21:54:11.090Z,223.75
2023-03-20T21:56:46.422Z,221.27
2023-03-20T21:59:33.182Z,193.77
2023-03-20T22:07:51.987Z,207.02
2023-03-20T22:10:55.715Z,202.63
2023-03-20T22:13:44.486Z,198.40
2023-03-20T22:19:19.695Z,124.38
2023-03-20T22:30:19.503Z,172.13
2023-03-20T22:36:02.561Z,144.13
2023-03-20T22:41:37.827Z,108.35
2023-03-20T22:46:55.936Z,63.30
2023-03-20T22:49:23.106Z,62.47
2023-03-20T22:52:08.250Z,66.03
2023-03-20T22:54:38.947Z,122.55
2023-03-20T22:57:06.143Z,122.50
2023-03-20T22:59:33.338Z,130.63
2023-03-20T23:02:00.780Z,145.00
2023-03-20T23:04:29.934Z,163.02
2023-03-20T23:06:57.328Z,153.63
2023-03-20T23:09:24.560Z,147.57
2023-03-20T23:11:51.720Z,174.70
2023-03-20T23:14:21.553Z,170.77
2023-03-20T23:16:49.903Z,166.15
2023-03-20T23:19:17.437Z,185.95
2023-03-20T23:21:44.597Z,176.80
2023-03-20T23:24:11.806Z,159.23
2023-03-20T23:26:38.999Z,156.32
2023-03-20T23:29:06.430Z,167.52
2023-03-20T23:31:33.736Z,157.57
2023-03-20T23:34:01.017Z,184.10
2023-03-20T23:36:36.350Z,170.50
2023-03-20T23:39:05.183Z,169.57
2023-03-20T23:42:01.713Z,169.43
2023-03-20T23:44:19.637Z,159.10
2023-03-20T23:46:48.230Z,166.48
2023-03-20T23:49:16.434Z,158.48
2023-03-20T23:51:43.633Z,162.85
2023-03-20T23:54:10.946Z,168.90
2023-03-20T23:56:38.092Z,156.48
2023-03-20T23:59:15.018Z,169.13
